Time;durP1;ratioP1;P1;durP2;ratioP2;P2;SDS_P1;SDS_P2;PMS_P1;PMS_P2;Temp;Humidity;BMP_temperature;BMP_pressure;BME280_temperature;BME280_humidity;BME280_pressure;Samples;Min_cycle;Max_cycle;Signal;HPM_P1;HPM_P2
2021/12/22 00:00:01;;;;;;;119.10;106.68;;;0.90;92.90;;;;;;5037076;28;20053;-75
2021/12/22 00:02:31;;;;;;;118.88;106.45;;;0.90;92.90;;;;;;5035595;28;20081;-75
2021/12/22 00:04:59;;;;;;;118.35;105.85;;;0.80;92.90;;;;;;5035474;28;20050;-75
2021/12/22 00:07:26;;;;;;;119.18;106.35;;;0.80;92.80;;;;;;5034899;28;20050;-75
2021/12/22 00:09:53;;;;;;;119.38;106.63;;;0.80;92.90;;;;;;5036904;28;20084;-75
2021/12/22 00:12:20;;;;;;;119.88;107.15;;;0.70;92.90;;;;;;5036851;28;20057;-75
2021/12/22 00:14:47;;;;;;;118.45;106.13;;;0.80;93.00;;;;;;5035679;28;20058;-75
2021/12/22 00:17:14;;;;;;;120.93;107.80;;;0.80;93.10;;;;;;5036081;28;20084;-75
2021/12/22 00:19:41;;;;;;;119.22;106.53;;;0.80;93.10;;;;;;5035704;28;20077;-75
2021/12/22 00:22:10;;;;;;;;;;;0.80;93.10;;;;;;5037545;28;20482;-75
2021/12/22 00:24:37;;;;;;;118.60;106.03;;;0.80;93.20;;;;;;5035356;28;19936;-75
2021/12/22 00:27:04;;;;;;;119.85;107.25;;;0.90;93.10;;;;;;5035050;28;20054;-75
2021/12/22 00:29:31;;;;;;;;;;;0.90;93.20;;;;;;5019264;28;20133;-75
2021/12/22 00:32:09;;;;;;;117.78;105.20;;;0.90;93.30;;;;;;5035931;28;19931;-75
2021/12/22 00:34:45;;;;;;;118.53;105.88;;;0.90;93.20;;;;;;5034879;28;20070;-75
2021/12/22 00:37:15;;;;;;;119.25;106.47;;;0.90;93.20;;;;;;5036085;28;20187;-75
2021/12/22 00:39:43;;;;;;;118.40;106.00;;;0.90;93.00;;;;;;5034954;28;20129;-75
2021/12/22 00:42:10;;;;;;;117.25;104.85;;;0.90;93.00;;;;;;5034518;28;20050;-75
2021/12/22 00:44:37;;;;;;;115.35;103.43;;;0.90;93.00;;;;;;5035239;28;20529;-75
2021/12/22 00:47:04;;;;;;;117.60;105.18;;;0.80;92.90;;;;;;5035754;28;20080;-75
2021/12/22 00:49:31;;;;;;;117.53;105.35;;;0.80;92.90;;;;;;5034987;28;20149;-75
2021/12/22 00:51:58;;;;;;;118.28;105.82;;;0.70;92.90;;;;;;5034901;28;20046;-75
2021/12/22 00:54:27;;;;;;;118.63;106.05;;;0.70;92.90;;;;;;5034832;28;20165;-75
2021/12/22 00:57:00;;;;;;;117.93;105.60;;;0.70;92.90;;;;;;5034438;28;20145;-75
2021/12/22 00:59:27;;;;;;;118.30;105.82;;;0.60;92.80;;;;;;5034931;28;20523;-75
2021/12/22 01:01:55;;;;;;;118.00;105.70;;;0.60;93.00;;;;;;5034558;28;20044;-75
2021/12/22 01:04:22;;;;;;;117.72;105.22;;;0.60;93.10;;;;;;5038313;28;20080;-75
2021/12/22 01:06:49;;;;;;;119.05;106.20;;;0.60;93.10;;;;;;5018052;28;20073;-75
2021/12/22 01:09:16;;;;;;;117.93;105.32;;;0.60;93.20;;;;;;5034800;28;20141;-76
2021/12/22 01:11:44;;;;;;;117.35;105.07;;;0.60;93.20;;;;;;5034579;28;20065;-75
2021/12/22 01:14:12;;;;;;;116.53;104.30;;;0.60;93.10;;;;;;5034586;28;20053;-75
2021/12/22 01:16:39;;;;;;;117.38;104.97;;;0.60;92.90;;;;;;5035745;28;20050;-75
2021/12/22 01:19:13;;;;;;;116.22;104.05;;;0.60;93.00;;;;;;5035710;28;20054;-75
2021/12/22 01:21:44;;;;;;;118.13;105.72;;;0.60;93.00;;;;;;5035678;28;20078;-75
2021/12/22 01:24:20;;;;;;;116.10;103.97;;;0.60;93.00;;;;;;5035538;28;20054;-75
2021/12/22 01:26:53;;;;;;;114.60;102.72;;;0.60;92.90;;;;;;5035306;28;20161;-75
2021/12/22 01:29:20;;;;;;;113.55;101.85;;;0.60;92.80;;;;;;5034479;28;20085;-75
2021/12/22 01:31:48;;;;;;;113.85;102.15;;;0.60;92.70;;;;;;5034137;28;20137;-75
2021/12/22 01:34:15;;;;;;;115.18;103.35;;;0.60;92.70;;;;;;5035840;28;20462;-75
2021/12/22 01:36:42;;;;;;;115.20;103.30;;;0.50;92.50;;;;;;5034011;28;20045;-75
2021/12/22 01:39:09;;;;;;;113.47;101.65;;;0.50;92.60;;;;;;5017500;28;20391;-75
2021/12/22 01:41:36;;;;;;;114.25;102.25;;;0.40;92.80;;;;;;5033873;28;20060;-74
2021/12/22 01:44:07;;;;;;;115.18;103.20;;;0.50;92.90;;;;;;5035225;28;20046;-75
2021/12/22 01:49:49;;;;;;;115.22;103.20;;;0.50;92.80;;;;;;5033816;28;20050;-75
2021/12/22 01:52:16;;;;;;;116.47;104.28;;;0.50;92.70;;;;;;5033597;28;20137;-75
2021/12/22 01:54:48;;;;;;;117.43;104.93;;;0.40;92.60;;;;;;5033879;28;20050;-75
2021/12/22 01:57:16;;;;;;;119.00;106.53;;;0.40;92.60;;;;;;5033291;28;20116;-75
2021/12/22 01:59:47;;;;;;;117.40;104.97;;;0.40;92.70;;;;;;5035424;28;20048;-75
2021/12/22 02:02:15;;;;;;;116.80;104.57;;;0.40;92.70;;;;;;5016389;28;20487;-75
2021/12/22 02:04:42;;;;;;;117.85;105.35;;;0.30;92.60;;;;;;5032926;28;20129;-75
2021/12/22 02:07:11;;;;;;;118.55;106.05;;;0.30;92.60;;;;;;5034345;28;20096;-75
2021/12/22 02:09:59;;;;;;;119.80;107.20;;;0.30;92.60;;;;;;5032156;28;20569;-75
2021/12/22 02:12:29;;;;;;;118.10;105.47;;;0.30;92.60;;;;;;5016917;28;20076;-75
2021/12/22 02:14:58;;;;;;;119.35;106.78;;;0.30;92.70;;;;;;5033474;28;20048;-75
2021/12/22 02:17:27;;;;;;;118.57;105.85;;;0.30;92.70;;;;;;5033183;28;20053;-75
2021/12/22 02:19:55;;;;;;;118.28;105.53;;;0.30;92.60;;;;;;5033541;28;20054;-75
2021/12/22 02:22:23;;;;;;;117.47;104.97;;;0.20;92.60;;;;;;5033258;28;20050;-75
2021/12/22 02:24:54;;;;;;;119.18;106.40;;;0.20;92.70;;;;;;5033032;28;20053;-74
2021/12/22 02:27:28;;;;;;;117.88;105.25;;;0.20;92.70;;;;;;5033123;28;20511;-75
2021/12/22 02:29:59;;;;;;;116.68;104.28;;;0.20;92.80;;;;;;5033328;28;20054;-75
2021/12/22 02:33:05;;;;;;;117.80;105.20;;;0.20;92.80;;;;;;5033297;28;20042;-74
2021/12/22 02:35:41;;;;;;;117.10;104.43;;;0.20;92.70;;;;;;5034285;28;20046;-75
2021/12/22 02:38:14;;;;;;;117.90;105.53;;;0.20;92.80;;;;;;5034306;28;20054;-74
2021/12/22 02:40:42;;;;;;;117.03;104.53;;;0.20;92.70;;;;;;5033667;28;20050;-75
2021/12/22 02:43:09;;;;;;;117.22;104.75;;;0.30;92.70;;;;;;5034198;28;20080;-75
2021/12/22 02:45:36;;;;;;;117.65;105.05;;;0.30;92.70;;;;;;5033269;28;20459;-75
2021/12/22 02:48:05;;;;;;;117.88;105.35;;;0.30;92.60;;;;;;5032653;28;20093;-75
2021/12/22 02:50:36;;;;;;;117.22;104.57;;;0.30;92.60;;;;;;5033142;28;20048;-74
2021/12/22 02:53:08;;;;;;;117.90;105.28;;;0.30;92.50;;;;;;5032969;28;20050;-75
2021/12/22 02:55:46;;;;;;;117.03;104.75;;;0.30;92.50;;;;;;5032948;28;20050;-75
2021/12/22 02:58:21;;;;;;;117.80;105.20;;;0.30;92.40;;;;;;5034283;28;20054;-74
2021/12/22 03:01:03;;;;;;;117.20;104.90;;;0.30;92.50;;;;;;5034016;28;20057;-75
2021/12/22 03:03:46;;;;;;;117.05;104.63;;;0.30;92.50;;;;;;5032855;28;20061;-75
2021/12/22 03:06:22;;;;;;;115.65;103.43;;;0.30;92.50;;;;;;5032819;28;20050;-75
2021/12/22 03:08:49;;;;;;;115.80;103.28;;;0.30;92.50;;;;;;5032240;28;20050;-75
2021/12/22 03:11:16;;;;;;;116.57;104.28;;;0.30;92.50;;;;;;5032176;28;20056;-75
2021/12/22 03:13:42;;;;;;;117.85;105.45;;;0.30;92.40;;;;;;5032696;28;20534;-75
2021/12/22 03:16:10;;;;;;;116.75;104.40;;;0.30;92.40;;;;;;5033824;28;20054;-75
2021/12/22 03:18:37;;;;;;;116.90;104.40;;;0.30;92.50;;;;;;5030895;28;20615;-75
2021/12/22 03:21:16;;;;;;;;;;;0.30;92.40;;;;;;5032975;28;20503;-75
2021/12/22 03:23:44;;;;;;;116.35;103.85;;;0.30;92.50;;;;;;5032762;28;19942;-75
2021/12/22 03:26:13;;;;;;;116.18;103.72;;;0.30;92.50;;;;;;5033585;28;20060;-74
2021/12/22 03:28:41;;;;;;;116.07;103.90;;;0.30;92.30;;;;;;5035001;28;20084;-74
2021/12/22 03:31:08;;;;;;;117.00;104.63;;;0.20;92.20;;;;;;5032277;28;20054;-75
2021/12/22 03:33:35;;;;;;;117.25;104.75;;;0.30;92.30;;;;;;5032450;28;20086;-75
2021/12/22 03:36:02;;;;;;;117.53;104.78;;;0.30;92.30;;;;;;5032471;28;20142;-74
2021/12/22 03:38:30;;;;;;;117.22;104.72;;;0.30;92.30;;;;;;5048409;28;20064;-75
2021/12/22 03:40:58;;;;;;;116.32;104.10;;;0.30;92.40;;;;;;5032310;28;20052;-75
2021/12/22 03:43:25;;;;;;;117.53;105.03;;;0.30;92.10;;;;;;5032152;28;20503;-75
2021/12/22 03:45:52;;;;;;;117.10;104.68;;;0.20;92.00;;;;;;5033603;28;20076;-75
2021/12/22 03:48:20;;;;;;;116.50;104.22;;;0.20;92.00;;;;;;5032299;28;20054;-74
2021/12/22 03:50:47;;;;;;;117.03;104.70;;;0.20;92.00;;;;;;5032075;28;20069;-74
2021/12/22 03:53:14;;;;;;;116.78;104.10;;;0.20;92.00;;;;;;5032270;28;20064;-74
2021/12/22 03:55:42;;;;;;;117.72;105.40;;;0.10;92.00;;;;;;5032091;28;20046;-75
2021/12/22 03:58:11;;;;;;;117.72;105.38;;;0.10;92.10;;;;;;5031415;28;20100;-75
2021/12/22 04:00:40;;;;;;;116.40;104.00;;;0.10;92.10;;;;;;5033455;28;20054;-75
2021/12/22 04:03:10;;;;;;;117.68;105.07;;;0.00;92.00;;;;;;5031853;28;20061;-74
2021/12/22 04:05:37;;;;;;;116.22;103.90;;;0.00;92.00;;;;;;5031767;28;20132;-74
2021/12/22 04:08:05;;;;;;;117.35;105.05;;;0.00;92.00;;;;;;5015226;28;20049;-75
2021/12/22 04:10:32;;;;;;;116.05;103.75;;;-0.10;92.00;;;;;;5031818;28;20541;-75
2021/12/22 04:12:59;;;;;;;116.55;104.05;;;-0.10;92.20;;;;;;5033058;28;20140;-75
2021/12/22 04:15:28;;;;;;;116.60;104.43;;;-0.10;92.30;;;;;;5015166;28;20046;-74
2021/12/22 04:17:56;;;;;;;115.20;103.20;;;-0.10;92.30;;;;;;5031552;28;20099;-75
2021/12/22 04:20:23;;;;;;;115.57;103.53;;;-0.10;92.20;;;;;;5015401;28;20104;-75
2021/12/22 04:22:50;;;;;;;115.53;103.35;;;0.00;92.20;;;;;;5033377;28;20069;-74
2021/12/22 04:25:21;;;;;;;;;;;0.00;92.20;;;;;;5032301;28;20149;-75
2021/12/22 04:27:48;;;;;;;113.80;101.47;;;0.00;92.50;;;;;;5033023;28;19925;-75
2021/12/22 04:30:15;;;;;;;115.53;103.22;;;-0.10;92.20;;;;;;5033015;28;20585;-75
2021/12/22 04:32:44;;;;;;;116.43;104.13;;;0.00;92.30;;;;;;5035230;28;20050;-74
2021/12/22 04:35:11;;;;;;;115.47;103.32;;;-0.10;92.20;;;;;;5036312;28;20056;-74
2021/12/22 04:37:38;;;;;;;116.40;104.10;;;0.00;92.10;;;;;;5035024;28;20793;-74
2021/12/22 04:40:06;;;;;;;115.68;103.38;;;-0.10;91.90;;;;;;5018379;28;20064;-74
2021/12/22 04:42:34;;;;;;;115.55;103.35;;;-0.10;92.00;;;;;;5035065;28;20125;-75
2021/12/22 04:45:04;;;;;;;115.65;103.32;;;-0.20;92.00;;;;;;5034813;28;20049;-75
2021/12/22 04:47:31;;;;;;;115.18;103.03;;;-0.20;92.10;;;;;;5036150;28;20181;-75
2021/12/22 04:50:01;;;;;;;116.47;104.18;;;-0.20;92.00;;;;;;5035947;28;20097;-74
2021/12/22 04:52:35;;;;;;;116.15;103.85;;;-0.20;92.20;;;;;;5034870;28;20104;-75
2021/12/22 04:55:04;;;;;;;117.38;104.88;;;-0.20;92.30;;;;;;5034435;28;20048;-75
2021/12/22 04:57:31;;;;;;;117.32;104.82;;;-0.20;92.30;;;;;;5034195;28;20089;-75
2021/12/22 04:59:58;;;;;;;;;;;-0.20;92.20;;;;;;5018316;28;20141;-75
2021/12/22 05:02:25;;;;;;;114.72;102.38;;;-0.10;92.10;;;;;;5036201;28;19925;-75
2021/12/22 05:04:52;;;;;;;115.28;102.80;;;-0.20;92.00;;;;;;5034928;28;20054;-74
2021/12/22 05:07:21;;;;;;;115.13;102.95;;;-0.20;92.00;;;;;;5050807;28;20132;-74
2021/12/22 05:09:47;;;;;;;117.25;104.80;;;-0.20;91.90;;;;;;5017216;28;20103;-75
2021/12/22 05:12:15;;;;;;;116.40;104.00;;;-0.30;91.80;;;;;;5034442;28;20054;-74
2021/12/22 05:14:46;;;;;;;117.78;105.10;;;-0.30;91.90;;;;;;5034414;28;20046;-75
2021/12/22 05:17:19;;;;;;;116.85;104.25;;;-0.40;92.00;;;;;;5035752;28;20102;-75
2021/12/22 05:19:46;;;;;;;116.18;103.78;;;-0.40;92.00;;;;;;5034501;28;20478;-74
2021/12/22 05:22:14;;;;;;;117.55;104.47;;;-0.40;92.00;;;;;;5034503;28;20064;-75
2021/12/22 05:24:42;;;;;;;118.00;105.20;;;-0.40;92.10;;;;;;5034761;28;20053;-75
2021/12/22 05:27:11;;;;;;;117.28;104.80;;;-0.40;92.30;;;;;;5035469;28;20085;-74
2021/12/22 05:29:39;;;;;;;117.55;104.68;;;-0.40;92.10;;;;;;5034227;28;20503;-75
2021/12/22 05:32:07;;;;;;;115.53;103.32;;;-0.40;92.10;;;;;;5035338;28;20053;-74
2021/12/22 05:34:34;;;;;;;115.63;103.32;;;-0.40;92.20;;;;;;5035596;28;20137;-74
2021/12/22 05:37:01;;;;;;;114.18;102.07;;;-0.40;92.40;;;;;;5033898;28;20046;-76
2021/12/22 05:39:28;;;;;;;114.78;102.57;;;-0.40;92.20;;;;;;5035512;28;20050;-74
2021/12/22 05:41:57;;;;;;;115.88;103.47;;;-0.40;92.20;;;;;;5034226;28;20132;-75
2021/12/22 05:44:25;;;;;;;116.47;104.22;;;-0.30;92.20;;;;;;5034918;28;20053;-75
2021/12/22 05:46:52;;;;;;;116.50;104.05;;;-0.30;92.40;;;;;;5033500;28;20057;-75
2021/12/22 05:49:20;;;;;;;114.85;102.68;;;-0.30;92.00;;;;;;5033983;28;20050;-74
2021/12/22 05:51:46;;;;;;;116.28;103.82;;;-0.30;92.10;;;;;;5033949;28;20060;-74
2021/12/22 05:54:38;;;;;;;114.50;102.20;;;-0.30;92.10;;;;;;5036949;28;20046;-75
2021/12/22 05:57:07;;;;;;;117.53;104.68;;;-0.30;92.10;;;;;;5050302;28;20081;-75
2021/12/22 05:59:34;;;;;;;114.95;102.82;;;-0.30;92.20;;;;;;5050471;28;20054;-74
2021/12/22 06:02:01;;;;;;;115.13;102.70;;;-0.30;92.10;;;;;;5033738;28;20478;-75
2021/12/22 06:04:28;;;;;;;116.22;103.90;;;-0.30;92.10;;;;;;5034077;28;20125;-75
2021/12/22 06:06:55;;;;;;;116.10;103.78;;;-0.20;92.00;;;;;;5034629;28;20061;-75
2021/12/22 06:09:22;;;;;;;116.97;104.38;;;-0.30;91.90;;;;;;5033587;28;20438;-75
2021/12/22 06:11:49;;;;;;;118.63;105.65;;;-0.30;91.90;;;;;;5033386;28;20084;-74
2021/12/22 06:14:17;;;;;;;117.85;105.00;;;-0.30;91.90;;;;;;5034948;28;21043;-75
2021/12/22 06:16:44;;;;;;;116.60;104.03;;;-0.30;91.90;;;;;;5035011;28;20053;-74
2021/12/22 06:19:13;;;;;;;116.10;103.80;;;-0.30;91.90;;;;;;5033255;28;20060;-74
2021/12/22 06:21:40;;;;;;;115.93;103.63;;;-0.30;92.00;;;;;;5033788;28;20507;-75
2021/12/22 06:24:08;;;;;;;115.57;103.40;;;-0.30;92.00;;;;;;5033005;28;20060;-74
2021/12/22 06:26:35;;;;;;;116.38;103.90;;;-0.30;92.00;;;;;;5033200;28;20546;-75
2021/12/22 06:29:02;;;;;;;116.70;104.18;;;-0.20;92.00;;;;;;5032953;28;20046;-75
2021/12/22 06:31:30;;;;;;;115.32;102.95;;;-0.20;92.00;;;;;;5016425;28;20132;-75
2021/12/22 06:33:57;;;;;;;116.15;103.53;;;-0.20;91.90;;;;;;5032441;28;20043;-75
2021/12/22 06:36:24;;;;;;;116.40;103.80;;;-0.20;91.90;;;;;;5031886;28;20053;-74
2021/12/22 06:38:52;;;;;;;116.25;103.85;;;-0.20;91.90;;;;;;5033146;28;20068;-75
2021/12/22 06:41:19;;;;;;;;;;;-0.20;91.90;;;;;;5033560;28;20848;-74
2021/12/22 06:43:46;;;;;;;116.78;104.03;;;-0.20;91.90;;;;;;5033808;28;19952;-75
2021/12/22 06:46:13;;;;;;;120.85;107.88;;;-0.20;91.90;;;;;;5031341;28;20145;-75
2021/12/22 06:48:42;;;;;;;122.22;109.22;;;-0.20;91.90;;;;;;5041568;28;20058;-75
2021/12/22 06:51:09;;;;;;;123.25;109.97;;;-0.20;91.80;;;;;;5039315;28;20054;-75
2021/12/22 06:53:36;;;;;;;120.13;107.28;;;-0.20;91.80;;;;;;5040189;28;20058;-74
2021/12/22 06:56:04;;;;;;;118.60;106.00;;;-0.20;91.90;;;;;;5040274;28;20064;-74
2021/12/22 06:58:31;;;;;;;121.53;108.40;;;-0.20;91.70;;;;;;5040189;28;20053;-74
2021/12/22 07:00:59;;;;;;;121.28;108.13;;;-0.20;91.80;;;;;;4980694;28;20135;-75
2021/12/22 07:03:26;;;;;;;119.22;106.38;;;-0.20;91.80;;;;;;5052739;28;20061;-75
2021/12/22 07:05:55;;;;;;;119.13;106.45;;;-0.20;91.80;;;;;;5040162;28;20054;-74
2021/12/22 07:08:22;;;;;;;118.60;105.88;;;-0.20;91.90;;;;;;5041144;28;20054;-74
2021/12/22 07:10:49;;;;;;;118.82;105.97;;;-0.20;91.90;;;;;;5035181;28;20068;-74
2021/12/22 07:13:16;;;;;;;117.68;105.25;;;-0.20;91.90;;;;;;5029859;28;20057;-75
2021/12/22 07:15:44;;;;;;;120.63;107.75;;;-0.20;91.80;;;;;;5029673;28;20244;-75
2021/12/22 07:18:12;;;;;;;120.18;107.25;;;-0.20;91.60;;;;;;5027622;28;20204;-74
2021/12/22 07:20:39;;;;;;;120.53;107.55;;;-0.20;91.70;;;;;;5059867;28;20049;-75
2021/12/22 07:23:08;;;;;;;118.75;105.95;;;-0.20;91.80;;;;;;5029495;28;20042;-75
2021/12/22 07:25:35;;;;;;;118.55;106.03;;;-0.20;91.70;;;;;;5031250;28;20119;-74
2021/12/22 07:28:02;;;;;;;121.05;108.05;;;-0.20;91.70;;;;;;5029806;28;20053;-74
2021/12/22 07:30:31;;;;;;;119.45;106.78;;;-0.20;91.70;;;;;;5030424;28;20487;-74
2021/12/22 07:32:58;;;;;;;121.07;107.93;;;-0.30;91.60;;;;;;5029447;28;20133;-74
2021/12/22 07:35:31;;;;;;;120.60;107.43;;;-0.30;91.60;;;;;;5029309;28;20129;-74
2021/12/22 07:38:07;;;;;;;121.53;108.50;;;-0.30;91.60;;;;;;5030427;28;20054;-74
2021/12/22 07:40:36;;;;;;;124.22;110.65;;;-0.30;91.60;;;;;;5029355;28;20242;-75
2021/12/22 07:43:03;;;;;;;122.50;109.35;;;-0.30;91.70;;;;;;5029024;28;20050;-75
2021/12/22 07:45:31;;;;;;;122.15;109.07;;;-0.30;91.50;;;;;;5031869;28;20056;-74
2021/12/22 07:47:58;;;;;;;121.00;108.18;;;-0.40;91.60;;;;;;5041984;28;20441;-74
2021/12/22 07:50:25;;;;;;;118.57;105.57;;;-0.40;91.60;;;;;;5044852;28;20050;-75
2021/12/22 07:52:52;;;;;;;121.53;108.57;;;-0.50;91.70;;;;;;5041509;28;20824;-74
2021/12/22 07:55:19;;;;;;;118.18;105.65;;;-0.50;91.70;;;;;;5034779;28;20052;-75
2021/12/22 07:57:48;;;;;;;119.22;106.00;;;-0.50;91.70;;;;;;5032050;28;20056;-75
2021/12/22 08:00:16;;;;;;;120.80;107.80;;;-0.50;91.70;;;;;;5024610;28;20061;-74
2021/12/22 08:02:43;;;;;;;122.30;103.88;;;-0.50;91.80;;;;;;5028524;28;20057;-74
2021/12/22 08:05:10;;;;;;;115.70;103.35;;;-0.40;91.80;;;;;;5032035;28;20049;-74
2021/12/22 08:07:38;;;;;;;116.28;103.72;;;-0.40;91.90;;;;;;5035771;28;20065;-74
2021/12/22 08:10:05;;;;;;;115.63;103.13;;;-0.40;91.90;;;;;;5034436;28;20467;-74
2021/12/22 08:12:32;;;;;;;;;;;-0.40;91.90;;;;;;5035154;28;20436;-74
2021/12/22 08:15:01;;;;;;;118.13;105.15;;;-0.40;92.20;;;;;;5036711;28;19925;-74
2021/12/22 08:17:30;;;;;;;118.05;105.05;;;-0.40;92.00;;;;;;5036260;28;20057;-74
2021/12/22 08:19:58;;;;;;;117.82;104.88;;;-0.40;92.00;;;;;;5035499;28;20108;-75
2021/12/22 08:22:25;;;;;;;116.75;103.90;;;-0.40;92.00;;;;;;5034909;28;20424;-75
2021/12/22 08:24:52;;;;;;;120.60;104.05;;;-0.40;92.10;;;;;;5034883;28;20197;-75
2021/12/22 08:27:21;;;;;;;115.43;102.75;;;-0.40;92.00;;;;;;5034785;28;20046;-74
2021/12/22 08:29:49;;;;;;;117.50;104.65;;;-0.40;92.10;;;;;;5018621;28;20133;-74
2021/12/22 08:32:17;;;;;;;;;;;-0.40;92.10;;;;;;5042652;28;20042;-74
2021/12/22 08:34:47;;;;;;;119.85;105.78;;;-0.40;92.20;;;;;;5034477;28;19956;-74
2021/12/22 08:40:00;;;;;;;117.57;104.57;;;-0.40;92.20;;;;;;5026759;28;20088;-74
2021/12/22 08:42:28;;;;;;;117.28;104.43;;;-0.40;92.20;;;;;;5022609;28;20037;-75
2021/12/22 08:44:55;;;;;;;115.90;103.47;;;-0.40;92.30;;;;;;5026652;28;20060;-74
2021/12/22 08:47:23;;;;;;;116.95;103.20;;;-0.40;92.30;;;;;;5041123;28;20046;-74
2021/12/22 08:49:50;;;;;;;116.38;103.63;;;-0.40;92.40;;;;;;5040840;28;20061;-74
2021/12/22 08:52:17;;;;;;;118.60;105.57;;;-0.40;92.50;;;;;;5033835;28;20050;-75
2021/12/22 08:54:44;;;;;;;117.53;104.57;;;-0.40;92.50;;;;;;5035662;28;20506;-75
2021/12/22 08:57:12;;;;;;;120.43;105.90;;;-0.40;92.60;;;;;;5033585;28;20133;-74
2021/12/22 08:59:39;;;;;;;117.10;104.38;;;-0.40;92.80;;;;;;5034231;28;20056;-74
2021/12/22 09:02:06;;;;;;;116.53;103.85;;;-0.40;92.70;;;;;;5034552;28;20080;-74
2021/12/22 09:04:34;;;;;;;118.13;103.03;;;-0.50;92.70;;;;;;5033883;28;20124;-74
2021/12/22 09:07:01;;;;;;;117.35;104.47;;;-0.40;92.80;;;;;;5037554;28;20045;-75
2021/12/22 09:09:28;;;;;;;118.25;104.03;;;-0.40;92.80;;;;;;5040665;28;20136;-74
2021/12/22 09:11:56;;;;;;;116.25;103.65;;;-0.40;92.90;;;;;;5033649;28;20108;-74
2021/12/22 09:14:24;;;;;;;115.50;102.72;;;-0.40;92.90;;;;;;5035619;28;20046;-74
2021/12/22 09:16:53;;;;;;;116.50;103.85;;;-0.40;93.00;;;;;;5033857;28;20058;-74
2021/12/22 09:19:20;;;;;;;119.10;105.75;;;-0.40;93.10;;;;;;5033957;28;20054;-74
2021/12/22 09:21:48;;;;;;;118.20;105.35;;;-0.40;93.10;;;;;;5033801;28;20061;-74
2021/12/22 09:24:15;;;;;;;117.82;104.65;;;-0.40;93.20;;;;;;5035336;28;20042;-74
2021/12/22 09:26:42;;;;;;;119.60;106.47;;;-0.40;93.30;;;;;;5033179;28;20056;-74
2021/12/22 09:29:10;;;;;;;97.57;86.22;;;-0.30;93.30;;;;;;5017301;28;20559;-74
2021/12/22 09:31:37;;;;;;;118.65;105.85;;;-0.30;93.30;;;;;;5039054;28;20054;-73
2021/12/22 09:34:05;;;;;;;118.28;105.43;;;-0.30;93.30;;;;;;5035252;28;20454;-74
2021/12/22 09:36:32;;;;;;;120.05;106.85;;;-0.20;93.40;;;;;;5038133;28;20153;-73
2021/12/22 09:39:00;;;;;;;117.32;104.72;;;-0.20;93.40;;;;;;5063823;28;20046;-74
2021/12/22 09:41:27;;;;;;;117.65;104.88;;;-0.20;93.40;;;;;;5044859;28;20096;-74
2021/12/22 09:44:19;;;;;;;116.80;104.07;;;-0.20;93.50;;;;;;5041922;28;20049;-74
2021/12/22 09:46:49;;;;;;;116.45;103.78;;;-0.20;93.60;;;;;;5038341;28;20268;-74
2021/12/22 09:49:35;;;;;;;117.40;103.82;;;-0.20;93.60;;;;;;5035495;28;20085;-74
2021/12/22 09:52:19;;;;;;;118.22;105.72;;;-0.20;93.60;;;;;;4979328;28;20054;-74
2021/12/22 09:54:49;;;;;;;117.50;104.38;;;-0.20;93.70;;;;;;5031215;28;20511;-74
2021/12/22 09:57:17;;;;;;;117.15;104.30;;;-0.10;93.70;;;;;;5037632;28;20140;-74
2021/12/22 09:59:46;;;;;;;115.40;103.00;;;-0.10;93.70;;;;;;5052391;28;20061;-74
2021/12/22 10:02:14;;;;;;;116.72;104.20;;;-0.10;93.70;;;;;;5036484;28;20046;-74
2021/12/22 10:04:41;;;;;;;117.10;104.50;;;-0.10;93.80;;;;;;5034575;28;20145;-74
2021/12/22 10:07:09;;;;;;;116.93;104.32;;;-0.10;93.80;;;;;;5037282;28;20405;-74
2021/12/22 10:09:44;;;;;;;116.38;103.68;;;-0.10;93.90;;;;;;5037750;28;20137;-74
2021/12/22 10:12:17;;;;;;;118.05;105.45;;;0.00;94.00;;;;;;5020690;28;20086;-74
2021/12/22 10:14:50;;;;;;;116.05;103.65;;;0.00;94.10;;;;;;5038681;28;20048;-74
2021/12/22 10:17:28;;;;;;;117.30;104.72;;;0.00;94.10;;;;;;5039236;28;20124;-74
2021/12/22 10:19:57;;;;;;;116.50;103.90;;;0.10;94.30;;;;;;5039982;28;20064;-74
2021/12/22 10:22:30;;;;;;;116.28;103.88;;;0.10;94.20;;;;;;5041513;28;20042;-74
2021/12/22 10:25:08;;;;;;;116.65;103.95;;;0.10;94.30;;;;;;5065714;28;20538;-74
2021/12/22 10:27:37;;;;;;;116.72;104.18;;;0.20;94.30;;;;;;5040000;28;20058;-74
2021/12/22 10:30:32;;;;;;;116.20;103.60;;;0.20;94.40;;;;;;5040905;28;20056;-74
2021/12/22 10:33:12;;;;;;;116.85;104.30;;;0.30;94.50;;;;;;4995802;28;20041;-74
2021/12/22 10:35:41;;;;;;;116.65;104.13;;;0.30;94.50;;;;;;5040252;28;20059;-75
2021/12/22 10:38:10;;;;;;;115.72;103.50;;;0.30;94.50;;;;;;5066601;28;20056;-74
2021/12/22 10:40:39;;;;;;;117.63;105.22;;;0.30;94.40;;;;;;5064222;28;20530;-74
2021/12/22 10:43:09;;;;;;;115.93;103.60;;;0.40;94.40;;;;;;5032652;28;20038;-74
2021/12/22 10:45:37;;;;;;;118.47;105.65;;;0.40;94.40;;;;;;5033572;28;20135;-74
2021/12/22 10:50:55;;;;;;;117.60;105.03;;;0.40;94.50;;;;;;5035351;28;20470;-74
2021/12/22 10:53:23;;;;;;;116.53;104.05;;;0.50;94.50;;;;;;5034030;28;20081;-73
2021/12/22 10:55:52;;;;;;;116.65;104.13;;;0.50;94.50;;;;;;5046103;28;20057;-74
2021/12/22 10:58:24;;;;;;;117.88;105.38;;;0.50;94.40;;;;;;5037875;28;20053;-74
2021/12/22 11:01:10;;;;;;;116.28;103.90;;;0.50;94.40;;;;;;5041232;28;20064;-74
2021/12/22 11:03:43;;;;;;;117.97;105.65;;;0.50;94.50;;;;;;5037002;28;20090;-74
2021/12/22 11:06:24;;;;;;;116.57;104.10;;;0.60;94.50;;;;;;5033614;28;20058;-74
2021/12/22 11:08:56;;;;;;;115.25;103.03;;;0.60;94.60;;;;;;5033320;28;20643;-74
2021/12/22 11:11:25;;;;;;;114.85;102.65;;;0.70;94.60;;;;;;5035818;28;20128;-74
2021/12/22 11:14:09;;;;;;;115.63;103.13;;;0.70;94.60;;;;;;5035437;28;20046;-74
2021/12/22 11:17:02;;;;;;;119.13;106.28;;;0.80;94.70;;;;;;5064563;28;20042;-74
2021/12/22 11:19:31;;;;;;;115.97;103.43;;;0.80;94.60;;;;;;5031885;28;20077;-74
2021/12/22 11:22:08;;;;;;;117.65;105.22;;;0.80;94.60;;;;;;5057372;28;20057;-74
2021/12/22 11:24:41;;;;;;;115.95;103.43;;;0.80;94.60;;;;;;5032324;28;20168;-74
2021/12/22 11:27:10;;;;;;;116.97;104.68;;;0.80;94.60;;;;;;5036346;28;20049;-74
2021/12/22 11:29:42;;;;;;;116.18;103.57;;;0.80;94.60;;;;;;5033101;28;20050;-74
2021/12/22 11:32:10;;;;;;;119.40;106.70;;;0.90;94.70;;;;;;5032815;28;20155;-73
2021/12/22 11:34:39;;;;;;;115.47;103.15;;;0.90;94.70;;;;;;5030204;28;20385;-74
2021/12/22 11:37:09;;;;;;;115.95;103.85;;;0.90;94.60;;;;;;5033101;28;20050;-73
2021/12/22 11:39:36;;;;;;;116.78;104.07;;;0.90;94.60;;;;;;5031536;28;20050;-74
2021/12/22 11:42:07;;;;;;;116.93;104.32;;;0.90;94.50;;;;;;5035536;28;20064;-75
2021/12/22 11:44:35;;;;;;;119.13;106.63;;;1.00;94.60;;;;;;5034277;28;20049;-75
2021/12/22 11:47:05;;;;;;;;;;;1.00;94.60;;;;;;5036212;28;20108;-74
2021/12/22 11:49:34;;;;;;;114.20;102.03;;;1.00;94.50;;;;;;5069350;28;19925;-74
2021/12/22 11:52:03;;;;;;;115.43;103.13;;;1.00;94.60;;;;;;5035979;28;20054;-75
2021/12/22 11:54:30;;;;;;;115.82;103.53;;;1.00;94.60;;;;;;5035663;28;20141;-75
2021/12/22 11:56:58;;;;;;;115.72;103.28;;;1.10;94.60;;;;;;5035136;28;20495;-76
2021/12/22 11:59:37;;;;;;;116.32;103.88;;;1.10;94.60;;;;;;5037196;28;20050;-76
2021/12/22 12:02:23;;;;;;;116.05;103.90;;;1.10;94.60;;;;;;5047184;28;20111;-75
2021/12/22 12:04:52;;;;;;;115.28;102.78;;;1.10;94.70;;;;;;5046153;28;20053;-74
2021/12/22 12:07:46;;;;;;;115.70;103.18;;;1.10;94.60;;;;;;5035712;28;20061;-73
2021/12/22 12:10:43;;;;;;;115.75;103.30;;;1.10;94.70;;;;;;5034861;28;20148;-74
2021/12/22 12:13:36;;;;;;;115.53;102.85;;;1.20;94.70;;;;;;5035398;28;20061;-74
2021/12/22 12:22:19;;;;;;;116.60;103.90;;;1.30;94.70;;;;;;5036096;28;20058;-76
2021/12/22 12:24:49;;;;;;;115.72;103.32;;;1.30;94.70;;;;;;5035400;28;20041;-74
2021/12/22 12:27:37;;;;;;;115.82;103.63;;;1.30;94.70;;;;;;5034567;28;20046;-76
2021/12/22 12:30:09;;;;;;;116.68;103.97;;;1.40;94.70;;;;;;5051765;28;20077;-74
2021/12/22 12:33:16;;;;;;;116.18;103.85;;;1.40;94.70;;;;;;5034267;28;20041;-74
2021/12/22 12:35:56;;;;;;;117.95;105.35;;;1.50;94.80;;;;;;5029882;28;20084;-73
2021/12/22 12:38:25;;;;;;;115.53;102.90;;;1.50;94.80;;;;;;5034940;28;20128;-72
2021/12/22 12:41:13;;;;;;;116.72;104.32;;;1.60;94.80;;;;;;5039233;28;20545;-72
2021/12/22 12:44:09;;;;;;;117.93;105.25;;;1.60;94.70;;;;;;5035941;28;20062;-72